UPSVAC Airport Information Service

Clark International

ICAO: RPLC Country: Luzon, Philippines
Latitude: 15.1833 Longitude: 120.55
Latest Arrival : UPS1201 (VHHH-RPLC) Latest Departure : UPSJUMP (RPLC-KPHL)


WX CaptureLIVE
Data provided by noaa.gov | Fetched at 13:07:37

METAR : RPLC 141200Z 14006KT 8000 FEW018CB BKN020 BKN300 30/22 Q1011 NOSIG RMK A2985 CB NNW

TAF : RPLC 141100Z 1412/1518 25006KT 9999 FEW020 BKN300 TX35/1506Z TN25/1422Z TEMPO 1412/1418 34006KT 8000 FEW015CB SCT020 BKN300


Runway Data for RPLC
Data provided by openaviationdata.com

Runway ID Mag Var Hdg Length Elevation Surface ILS Freq ILS Id ILS Slope
02L -1 21° 10560 ft 484 ft Concrete -- -- --
02R -1 21° 10540 ft 484 ft Concrete 109.3 ICA 3
20L -1 201° 10540 ft 484 ft Concrete 110.1 ICK 3
20R -1 201° 10560 ft 484 ft Concrete -- -- --

Clark International, Luzon, Philippines
Use only for reference purposes



Not for navigational purposes.